Addyston, Ohio
Current Conditions -  °F | °C
As of 10:52 PM on Saturday 25 Oct 2014 (Local Time) from KCVG Reporting Station
Clear Clear  
Wind Chill: 65°   Ceiling: Unl
Heat Index: 65°   Visibility: 10mi
Dew Point: 50°   Wind: 12mph
Humidity: 58%   Direction: 260°W
Pressure: 29.92"   Gusts: NA
Location:  39.14°N, 84.71°W
Report Text: KCVG 260252Z 26010KT 10SM CLR 18/10 A2992 RMK AO2 SLP126 T01830100 55001
Loading
Personal Weather Stations






























Interactive Weather Map
Tropical Storm Tracking
New forecast layout! Learn more

10-Day Weather Forecast

Advertisements
Track Severe Weather on mobile